createdAt,value
2018-07-14T00:01:24.282Z,13.30
2018-07-14T00:06:19.694Z,13.20
2018-07-14T00:08:48.488Z,13.20
2018-07-14T00:13:44.127Z,13.10
2018-07-14T00:18:39.603Z,13.00
2018-07-14T00:21:07.408Z,13.00
2018-07-14T00:26:02.918Z,12.90
2018-07-14T00:28:32.442Z,12.90
2018-07-14T00:33:28.700Z,12.90
2018-07-14T00:35:56.917Z,12.80
2018-07-14T00:38:25.302Z,12.70
2018-07-14T00:40:53.254Z,12.70
2018-07-14T00:43:21.520Z,12.60
2018-07-14T00:45:49.583Z,12.60
2018-07-14T00:48:17.748Z,12.50
2018-07-14T00:50:45.467Z,12.50
2018-07-14T00:58:08.951Z,12.50
2018-07-14T01:00:36.852Z,12.50
2018-07-14T01:03:04.680Z,12.50
2018-07-14T01:05:32.477Z,12.40
2018-07-14T01:10:28.315Z,12.20
2018-07-14T01:12:56.064Z,12.20
2018-07-14T01:15:24.051Z,12.10
2018-07-14T01:17:51.958Z,12.10
2018-07-14T01:20:19.994Z,12.10
2018-07-14T01:22:48.096Z,12.10
2018-07-14T01:25:16.378Z,12.00
2018-07-14T01:27:45.350Z,12.00
2018-07-14T01:30:13.467Z,12.00
2018-07-14T01:32:41.391Z,11.90
2018-07-14T01:35:09.296Z,11.90
2018-07-14T01:37:37.202Z,11.80
2018-07-14T01:40:04.906Z,11.80
2018-07-14T01:42:32.690Z,11.80
2018-07-14T01:45:00.530Z,11.80
2018-07-14T01:47:28.659Z,11.80
2018-07-14T01:49:56.451Z,11.80
2018-07-14T01:52:24.178Z,11.70
2018-07-14T01:57:19.717Z,11.60
2018-07-14T01:59:47.673Z,11.60
2018-07-14T02:09:38.864Z,11.40
2018-07-14T02:12:06.623Z,11.40
2018-07-14T02:14:34.452Z,11.40
2018-07-14T02:19:30.078Z,11.40
2018-07-14T02:24:25.964Z,11.30
2018-07-14T02:26:53.924Z,11.20
2018-07-14T02:29:21.851Z,11.20
2018-07-14T02:34:17.293Z,11.10
2018-07-14T02:36:45.379Z,11.10
2018-07-14T02:39:13.305Z,11.00
2018-07-14T02:41:41.145Z,11.00
2018-07-14T02:44:08.891Z,11.00
2018-07-14T02:46:36.625Z,11.00
2018-07-14T02:49:04.524Z,11.00
2018-07-14T02:51:32.417Z,11.00
2018-07-14T02:54:00.219Z,11.00
2018-07-14T02:56:27.973Z,11.00
2018-07-14T03:01:23.494Z,10.80
2018-07-14T03:06:18.882Z,10.70
2018-07-14T03:08:46.641Z,10.70
2018-07-14T03:11:14.361Z,10.70
2018-07-14T03:13:42.053Z,10.60
2018-07-14T03:16:10.889Z,10.60
2018-07-14T03:21:06.488Z,10.60
2018-07-14T03:23:34.393Z,10.60
2018-07-14T03:28:30.212Z,10.50
2018-07-14T03:33:26.026Z,10.50
2018-07-14T03:35:54.038Z,10.50
2018-07-14T03:38:21.784Z,10.50
2018-07-14T03:43:17.300Z,10.40
2018-07-14T03:45:45.091Z,10.40
2018-07-14T03:48:12.941Z,10.40
2018-07-14T03:55:36.195Z,10.50
2018-07-14T03:58:03.953Z,10.50
2018-07-14T04:00:31.982Z,10.50
2018-07-14T04:02:59.861Z,10.50
2018-07-14T04:05:27.706Z,10.50
2018-07-14T04:07:55.421Z,10.60
2018-07-14T04:10:23.293Z,10.60
2018-07-14T04:12:51.032Z,10.70
2018-07-14T04:15:19.031Z,10.70
2018-07-14T04:17:51.253Z,10.70
2018-07-14T04:20:19.182Z,10.70
2018-07-14T04:25:14.641Z,10.80
2018-07-14T04:27:42.366Z,10.70
2018-07-14T04:30:10.418Z,10.70
2018-07-14T04:32:38.231Z,10.80
2018-07-14T04:35:06.124Z,10.90
2018-07-14T04:37:33.968Z,10.90
2018-07-14T04:40:01.886Z,10.90
2018-07-14T04:42:29.864Z,11.00
2018-07-14T04:47:25.618Z,11.00
2018-07-14T04:49:53.460Z,11.10
2018-07-14T04:54:48.910Z,11.20
2018-07-14T04:57:16.636Z,11.30
2018-07-14T04:59:44.264Z,11.30
2018-07-14T05:02:12.096Z,11.40
2018-07-14T05:04:40.395Z,11.50
2018-07-14T05:07:08.112Z,11.60
2018-07-14T05:12:03.579Z,11.80
2018-07-14T05:14:31.345Z,11.80
2018-07-14T05:16:59.298Z,11.90
2018-07-14T05:19:27.017Z,12.00
2018-07-14T05:21:54.917Z,12.10
2018-07-14T05:24:22.789Z,12.40
2018-07-14T05:26:50.520Z,12.80
2018-07-14T05:29:18.459Z,13.00
2018-07-14T05:31:46.740Z,13.20
2018-07-14T05:34:14.769Z,13.30
2018-07-14T05:36:42.553Z,13.40
2018-07-14T05:39:10.545Z,13.60
2018-07-14T05:41:38.460Z,13.60
2018-07-14T05:44:06.338Z,13.70
2018-07-14T05:46:34.961Z,13.70
2018-07-14T05:49:02.823Z,13.80
2018-07-14T05:51:30.900Z,13.80
2018-07-14T05:53:59.022Z,13.90
2018-07-14T05:56:26.890Z,14.40
2018-07-14T05:58:54.622Z,15.30
2018-07-14T06:01:22.622Z,16.50
2018-07-14T06:03:50.404Z,17.60
2018-07-14T06:06:18.081Z,18.50
2018-07-14T06:08:45.922Z,19.00
2018-07-14T06:11:14.228Z,19.70
2018-07-14T06:13:42.321Z,20.50
2018-07-14T06:16:10.632Z,21.40
2018-07-14T06:18:38.566Z,21.60
2018-07-14T06:21:06.373Z,22.00
2018-07-14T06:23:34.271Z,22.40
2018-07-14T06:26:02.278Z,23.00
2018-07-14T06:33:25.812Z,24.40
2018-07-14T06:35:53.856Z,24.60
2018-07-14T06:38:22.041Z,24.80
2018-07-14T06:40:49.949Z,25.00
2018-07-14T06:43:18.034Z,25.40
2018-07-14T06:45:46.018Z,25.60
2018-07-14T06:48:14.478Z,26.00
2018-07-14T06:50:42.862Z,26.20
2018-07-14T06:53:11.235Z,26.50
2018-07-14T06:55:39.363Z,26.50
2018-07-14T06:58:07.198Z,26.80
2018-07-14T07:00:34.992Z,26.90
2018-07-14T07:03:02.936Z,27.10
2018-07-14T07:05:30.895Z,27.10
2018-07-14T07:07:59.080Z,27.20
2018-07-14T07:10:26.793Z,27.00
2018-07-14T07:12:54.649Z,26.80
2018-07-14T07:15:22.624Z,26.40
2018-07-14T07:17:50.531Z,26.10
2018-07-14T07:22:46.441Z,25.20
2018-07-14T07:25:14.119Z,25.00
2018-07-14T07:27:41.995Z,24.90
2018-07-14T07:30:10.284Z,25.00
2018-07-14T07:32:38.052Z,25.00
2018-07-14T07:35:05.935Z,24.20
2018-07-14T07:37:33.788Z,24.30
2018-07-14T07:40:01.698Z,24.20
2018-07-14T07:42:29.546Z,24.30
2018-07-14T07:44:57.430Z,24.60
2018-07-14T07:47:25.269Z,24.60
2018-07-14T07:49:53.206Z,24.70
2018-07-14T07:52:21.270Z,24.80
2018-07-14T07:57:16.758Z,24.80
2018-07-14T07:59:45.272Z,24.90
2018-07-14T08:04:41.457Z,24.90
2018-07-14T08:07:09.756Z,24.90
2018-07-14T08:09:37.565Z,24.90
2018-07-14T08:14:33.215Z,24.80
2018-07-14T08:17:01.832Z,24.80
2018-07-14T08:19:29.778Z,24.70
2018-07-14T08:21:57.653Z,24.80
2018-07-14T08:24:25.820Z,24.30
2018-07-14T08:26:53.875Z,24.50
2018-07-14T08:29:21.610Z,24.70
2018-07-14T08:36:45.900Z,24.50
2018-07-14T08:39:13.931Z,24.30
2018-07-14T08:41:41.678Z,24.40
2018-07-14T08:44:09.513Z,24.30
2018-07-14T08:46:37.755Z,24.50
2018-07-14T08:49:05.853Z,24.60
2018-07-14T08:51:37.050Z,24.70
2018-07-14T08:54:05.461Z,24.90
2018-07-14T08:56:33.606Z,25.00
2018-07-14T08:59:01.690Z,25.20
2018-07-14T09:01:30.187Z,25.20
2018-07-14T09:03:58.251Z,25.10
2018-07-14T09:06:27.229Z,24.90
2018-07-14T09:08:55.296Z,24.90
2018-07-14T09:11:25.133Z,24.90
2018-07-14T09:13:56.280Z,25.10
2018-07-14T09:16:24.543Z,25.40
2018-07-14T09:18:53.334Z,25.50
2018-07-14T09:21:21.587Z,25.50
2018-07-14T09:23:49.482Z,25.60
2018-07-14T09:26:17.390Z,25.80
2018-07-14T09:28:45.213Z,25.90
2018-07-14T09:31:14.130Z,25.60
2018-07-14T09:36:10.489Z,24.90
2018-07-14T09:38:39.661Z,24.80
2018-07-14T09:41:08.981Z,24.80
2018-07-14T09:46:05.348Z,24.80
2018-07-14T09:48:34.444Z,24.90
2018-07-14T09:51:02.767Z,25.10
2018-07-14T09:53:31.796Z,25.20
2018-07-14T09:56:00.023Z,25.40
2018-07-14T09:58:28.906Z,25.70
2018-07-14T10:01:02.642Z,26.00
2018-07-14T10:03:30.608Z,26.10
2018-07-14T10:10:56.609Z,26.40
2018-07-14T10:13:26.368Z,26.40
2018-07-14T10:15:55.902Z,26.30
2018-07-14T10:18:25.484Z,26.20
2018-07-14T10:20:54.200Z,26.40
2018-07-14T10:23:22.082Z,26.50
2018-07-14T10:25:50.664Z,26.50
2018-07-14T10:28:18.493Z,26.20
2018-07-14T10:33:15.261Z,25.80
2018-07-14T10:38:13.063Z,25.70
2018-07-14T10:40:43.744Z,25.90
2018-07-14T10:43:12.161Z,25.80
2018-07-14T10:45:40.262Z,25.80
2018-07-14T10:48:09.356Z,25.70
2018-07-14T10:50:38.245Z,25.60
2018-07-14T10:53:07.569Z,25.60
2018-07-14T10:55:35.607Z,25.70
2018-07-14T10:58:04.579Z,25.90
2018-07-14T11:00:35.871Z,25.80
2018-07-14T11:03:05.869Z,26.10
2018-07-14T11:05:34.100Z,26.30
2018-07-14T11:08:03.373Z,26.30
2018-07-14T11:10:31.616Z,26.60
2018-07-14T11:12:59.415Z,26.80
2018-07-14T11:15:27.541Z,26.70
2018-07-14T11:17:55.395Z,26.60
2018-07-14T11:20:23.580Z,26.50
2018-07-14T11:22:51.598Z,26.30
2018-07-14T11:25:19.373Z,26.40
2018-07-14T11:27:47.395Z,26.40
2018-07-14T11:30:15.428Z,26.50
2018-07-14T11:32:43.657Z,26.60
2018-07-14T11:35:11.498Z,26.60
2018-07-14T11:37:39.440Z,26.50
2018-07-14T11:40:07.195Z,26.60
2018-07-14T11:42:35.136Z,26.50
2018-07-14T11:45:03.536Z,26.70
2018-07-14T11:47:31.492Z,26.90
2018-07-14T11:49:59.379Z,27.20
2018-07-14T11:54:54.871Z,27.20
2018-07-14T11:57:22.808Z,27.10
2018-07-14T11:59:50.578Z,26.80
2018-07-14T12:02:18.370Z,26.50
2018-07-14T12:04:47.706Z,26.40
2018-07-14T12:09:44.049Z,26.20
2018-07-14T12:14:41.428Z,26.50
2018-07-14T12:17:10.754Z,26.80
2018-07-14T12:19:38.949Z,27.00
2018-07-14T12:22:07.060Z,27.00
2018-07-14T12:24:36.535Z,27.10
2018-07-14T12:27:06.412Z,27.10
2018-07-14T12:29:34.525Z,27.10
2018-07-14T12:32:02.970Z,26.90
2018-07-14T12:34:31.370Z,26.50
2018-07-14T12:36:59.698Z,26.50
2018-07-14T12:44:24.952Z,26.60
2018-07-14T12:46:53.317Z,26.70
2018-07-14T12:49:23.020Z,26.90
2018-07-14T12:51:51.539Z,26.80
2018-07-14T12:54:19.617Z,27.00
2018-07-14T12:56:48.490Z,27.40
2018-07-14T12:59:16.734Z,27.70
2018-07-14T13:01:44.918Z,27.90
2018-07-14T13:04:12.864Z,27.90
2018-07-14T13:06:40.956Z,27.80
2018-07-14T13:09:09.717Z,27.80
2018-07-14T13:11:41.168Z,27.70
2018-07-14T13:14:09.999Z,27.70
2018-07-14T13:16:40.926Z,27.60
2018-07-14T13:19:08.873Z,27.50
2018-07-14T13:21:37.093Z,27.50
2018-07-14T13:24:05.076Z,27.60
2018-07-14T13:26:33.126Z,27.60
2018-07-14T13:29:01.044Z,27.70
2018-07-14T13:31:28.891Z,27.80
2018-07-14T13:33:57.371Z,27.80
2018-07-14T13:36:25.273Z,27.60
2018-07-14T13:38:53.220Z,27.50
2018-07-14T13:41:21.296Z,27.30
2018-07-14T13:43:50.558Z,27.10
2018-07-14T13:46:18.485Z,27.10
2018-07-14T13:48:46.267Z,27.10
2018-07-14T13:51:14.470Z,27.10
2018-07-14T13:53:42.391Z,27.10
2018-07-14T13:58:38.856Z,27.50
2018-07-14T14:01:07.631Z,27.60
2018-07-14T14:03:36.054Z,27.70
2018-07-14T14:06:03.807Z,27.70
2018-07-14T14:08:31.659Z,27.60
2018-07-14T14:10:59.535Z,27.30
2018-07-14T14:13:27.218Z,27.30
2018-07-14T14:15:55.349Z,27.30
2018-07-14T14:18:23.312Z,27.50
2018-07-14T14:20:51.171Z,27.60
2018-07-14T14:23:18.928Z,27.70
2018-07-14T14:28:14.578Z,27.50
2018-07-14T14:30:42.864Z,27.30
2018-07-14T14:33:10.871Z,27.20
2018-07-14T14:35:38.655Z,27.20
2018-07-14T14:38:06.970Z,27.40
2018-07-14T14:40:34.809Z,27.40
2018-07-14T14:43:02.617Z,27.50
2018-07-14T14:45:30.534Z,27.70
2018-07-14T14:50:26.245Z,27.80
2018-07-14T14:52:54.527Z,27.70
2018-07-14T14:55:22.328Z,27.60
2018-07-14T14:57:50.110Z,27.40
2018-07-14T15:00:18.036Z,27.20
2018-07-14T15:02:46.193Z,27.00
2018-07-14T15:05:14.267Z,26.80
2018-07-14T15:07:42.336Z,26.70
2018-07-14T15:10:10.476Z,26.50
2018-07-14T15:12:38.592Z,26.60
2018-07-14T15:15:06.749Z,26.80
2018-07-14T15:17:34.790Z,26.80
2018-07-14T15:20:02.651Z,26.80
2018-07-14T15:22:30.561Z,26.90
2018-07-14T15:24:58.483Z,27.00
2018-07-14T15:27:26.320Z,27.00
2018-07-14T15:32:22.330Z,27.00
2018-07-14T15:34:50.166Z,27.10
2018-07-14T15:37:18.173Z,27.10
2018-07-14T15:39:46.063Z,27.00
2018-07-14T15:42:14.063Z,26.90
2018-07-14T15:44:42.135Z,26.70
2018-07-14T15:47:10.226Z,26.70
2018-07-14T15:49:38.208Z,26.60
2018-07-14T15:52:06.662Z,26.50
2018-07-14T15:54:34.890Z,26.60
2018-07-14T15:59:30.591Z,26.80
2018-07-14T16:01:58.593Z,26.90
2018-07-14T16:04:27.000Z,26.80
2018-07-14T16:06:54.970Z,26.90
2018-07-14T16:09:23.034Z,26.90
2018-07-14T16:11:50.829Z,26.90
2018-07-14T16:14:19.057Z,26.90
2018-07-14T16:19:16.737Z,27.00
2018-07-14T16:24:12.691Z,26.80
2018-07-14T16:26:40.576Z,26.80
2018-07-14T16:29:08.525Z,26.90
2018-07-14T16:31:37.574Z,26.80
2018-07-14T16:34:05.474Z,26.70
2018-07-14T16:36:33.646Z,26.60
2018-07-14T16:39:02.664Z,26.60
2018-07-14T16:41:30.667Z,26.60
2018-07-14T16:43:58.564Z,26.40
2018-07-14T16:48:54.652Z,26.10
2018-07-14T16:51:22.625Z,25.90
2018-07-14T16:53:51.551Z,25.70
2018-07-14T16:56:19.687Z,25.70
2018-07-14T16:58:48.092Z,25.70
2018-07-14T17:01:16.356Z,25.80
2018-07-14T17:03:45.451Z,25.60
2018-07-14T17:06:13.338Z,25.60
2018-07-14T17:08:41.405Z,25.60
2018-07-14T17:11:09.206Z,25.60
2018-07-14T17:13:37.635Z,25.60
2018-07-14T17:16:06.049Z,25.50
2018-07-14T17:21:01.700Z,25.10
2018-07-14T17:23:29.730Z,24.80
2018-07-14T17:25:57.643Z,24.70
2018-07-14T17:28:25.452Z,24.60
2018-07-14T17:30:53.394Z,24.60
2018-07-14T17:33:21.284Z,24.40
2018-07-14T17:35:49.193Z,24.20
2018-07-14T17:38:17.051Z,24.10
2018-07-14T17:45:40.300Z,23.80
2018-07-14T17:48:08.410Z,23.80
2018-07-14T17:53:04.158Z,23.60
2018-07-14T17:55:32.023Z,23.50
2018-07-14T17:57:59.843Z,23.40
2018-07-14T18:00:27.975Z,23.10
2018-07-14T18:02:55.933Z,22.90
2018-07-14T18:05:23.888Z,22.70
2018-07-14T18:07:52.127Z,22.50
2018-07-14T18:10:20.044Z,22.40
2018-07-14T18:12:48.264Z,22.30
2018-07-14T18:15:16.408Z,22.20
2018-07-14T18:17:44.231Z,22.10
2018-07-14T18:20:12.113Z,22.00
2018-07-14T18:22:39.990Z,21.90
2018-07-14T18:25:08.836Z,21.80
2018-07-14T18:27:36.640Z,21.70
2018-07-14T18:30:04.601Z,21.60
2018-07-14T18:35:00.180Z,21.30
2018-07-14T18:37:28.136Z,21.20
2018-07-14T18:39:56.774Z,21.20
2018-07-14T18:47:22.253Z,21.00
2018-07-14T18:49:50.558Z,21.00
2018-07-14T18:52:18.650Z,21.00
2018-07-14T18:54:47.757Z,20.90
2018-07-14T18:57:16.653Z,20.90
2018-07-14T19:02:12.640Z,20.90
2018-07-14T19:04:40.991Z,20.90
2018-07-14T19:07:08.945Z,20.80
2018-07-14T19:09:37.049Z,20.70
2018-07-14T19:12:05.681Z,20.60
2018-07-14T19:14:33.707Z,20.40
2018-07-14T19:17:02.050Z,20.20
2018-07-14T19:19:30.151Z,20.10
2018-07-14T19:21:58.051Z,19.90
2018-07-14T19:24:26.269Z,19.90
2018-07-14T19:26:54.258Z,19.80
2018-07-14T19:29:22.411Z,19.70
2018-07-14T19:31:50.610Z,19.60
2018-07-14T19:34:18.721Z,19.50
2018-07-14T19:36:46.863Z,19.40
2018-07-14T19:39:14.921Z,19.20
2018-07-14T19:41:42.959Z,19.10
2018-07-14T19:44:11.792Z,19.00
2018-07-14T19:46:40.668Z,18.80
2018-07-14T19:49:08.513Z,18.70
2018-07-14T19:51:37.084Z,18.60
2018-07-14T19:54:06.304Z,18.50
2018-07-14T19:56:35.163Z,18.20
2018-07-14T20:01:30.959Z,18.00
2018-07-14T20:03:58.862Z,18.00
2018-07-14T20:11:22.009Z,17.80
2018-07-14T20:13:49.825Z,17.80
2018-07-14T20:16:18.263Z,17.60
2018-07-14T20:18:46.513Z,17.60
2018-07-14T20:21:14.673Z,17.50
2018-07-14T20:23:42.323Z,17.50
2018-07-14T20:26:10.052Z,17.40
2018-07-14T20:28:37.810Z,17.50
2018-07-14T20:31:05.701Z,17.50
2018-07-14T20:33:33.447Z,17.40
2018-07-14T20:36:01.747Z,17.30
2018-07-14T20:40:58.035Z,17.20
2018-07-14T20:43:26.053Z,17.10
2018-07-14T20:48:21.904Z,17.00
2018-07-14T20:50:49.972Z,16.90
2018-07-14T20:55:45.971Z,16.80
2018-07-14T20:58:13.891Z,16.70
2018-07-14T21:00:42.526Z,16.60
2018-07-14T21:03:10.891Z,16.50
2018-07-14T21:05:38.894Z,16.40
2018-07-14T21:10:34.676Z,16.30
2018-07-14T21:13:02.735Z,16.20
2018-07-14T21:15:31.166Z,16.20
2018-07-14T21:20:26.960Z,16.10
2018-07-14T21:22:55.047Z,16.00
2018-07-14T21:25:22.998Z,15.90
2018-07-14T21:27:50.979Z,15.80
2018-07-14T21:30:18.735Z,15.80
2018-07-14T21:32:46.601Z,15.70
2018-07-14T21:35:14.682Z,15.60
2018-07-14T21:37:42.751Z,15.70
2018-07-14T21:40:10.709Z,15.60
2018-07-14T21:42:38.578Z,15.60
2018-07-14T21:45:06.413Z,15.60
2018-07-14T21:47:34.217Z,15.50
2018-07-14T21:50:03.149Z,15.50
2018-07-14T21:52:31.198Z,15.30
2018-07-14T21:54:59.302Z,15.20
2018-07-14T21:57:27.539Z,15.10
2018-07-14T21:59:55.576Z,15.10
2018-07-14T22:02:23.715Z,15.00
2018-07-14T22:04:52.065Z,14.90
2018-07-14T22:07:20.336Z,14.90
2018-07-14T22:09:48.405Z,14.90
2018-07-14T22:12:16.504Z,14.90
2018-07-14T22:14:44.826Z,14.80
2018-07-14T22:17:12.903Z,14.80
2018-07-14T22:19:40.875Z,14.80
2018-07-14T22:22:08.919Z,14.70
2018-07-14T22:24:37.228Z,14.60
2018-07-14T22:27:04.958Z,14.60
2018-07-14T22:29:33.244Z,14.60
2018-07-14T22:32:01.240Z,14.50
2018-07-14T22:34:29.421Z,14.40
2018-07-14T22:36:57.182Z,14.40
2018-07-14T22:39:25.565Z,14.30
2018-07-14T22:41:54.263Z,14.20
2018-07-14T22:54:14.077Z,14.10
2018-07-14T22:56:42.268Z,14.10
2018-07-14T22:59:10.273Z,14.10
2018-07-14T23:01:38.830Z,14.10
2018-07-14T23:06:35.790Z,14.00
2018-07-14T23:11:33.633Z,13.90
2018-07-14T23:14:01.917Z,13.80
2018-07-14T23:16:29.887Z,13.70
2018-07-14T23:18:58.172Z,13.80
2018-07-14T23:21:26.031Z,13.70
2018-07-14T23:23:54.043Z,13.70
2018-07-14T23:26:22.268Z,13.60
2018-07-14T23:28:50.419Z,13.60
2018-07-14T23:31:18.354Z,13.50
2018-07-14T23:33:46.586Z,13.50
2018-07-14T23:36:14.686Z,13.50
2018-07-14T23:41:10.738Z,13.40
2018-07-14T23:43:38.778Z,13.30
2018-07-14T23:46:07.505Z,13.30
2018-07-14T23:48:35.714Z,13.30
2018-07-14T23:51:03.619Z,13.30
2018-07-14T23:55:59.493Z,13.30
2018-07-14T23:58:27.254Z,13.20
